Language selection

Features

My Weather Profile Weather Topics  | 

Strait of Georgia - south of Nanaimo: Past 24 Hour Conditions

 

Halibut Bank - 46146

12:00 PM PST 10 December 2019Buoy position: 49.34N 123.72W
Disclaimer

This table is a summary of hourly weather conditions for the past 24 hours.
Please note that these observations might not always be representative of weather conditions over their associated marine area.

Date / Time
(PST)
Wind(knots) Wave height(m) Wave period(s) Pressure(kPa) Air tempC) Water tempC)
10 December 2019
12:00 ESE 13 gust 16 0.6 4.0 102.0 6 8
11:00 ESE 16 gust 17 0.6 3.0 102.0 6 8
10:00 E 16 gust 19 0.6 4.0 102.1 6 8
9:00 E 16 gust 19 0.6 4.0 102.1 6 8
8:00 E 17 gust 22 0.6 3.0 102.0 6 8
7:00 ESE 17 gust 19 0.4 3.0 102.0 6 8
6:00 ESE 16 gust 17 0.4 3.0 102.0 6 8
5:00 SE 12 gust 13 0.2 2.0 102.0 6 8
4:00 SE 10 gust 12 0.1 2.0 102.0 6 8
3:00 SE 8 gust 10 0.1 2.0 102.1 7 8
2:00 SE 8 gust 10 0.1 3.0 102.1 7 8
1:00 SE 8 gust 8 0.2 2.0 102.1 7 8
0:00 SE 10 gust 12 0.2 2.0 102.1 7 8
09 December 2019
23:00 ESE 10 gust 12 0.1 6.0 102.2 7 8
22:00 E 6 gust 8 0.1 5.0 102.2 7 8
21:00 ENE 4 gust 6 0.1 2.0 102.3 7 8
20:00 E 6 gust 6 0.1 5.0 102.3 7 8
19:00 E 4 gust 4 0.1 3.0 102.3 7 8
18:00 ESE 4 gust 8 0.1 6.0 102.3 7 8
17:00 SE 4 gust 6 0.1 6.0 102.3 7 8
16:00 SE 4 gust 4 0.1 6.0 102.3 7 8
15:00 ESE 4 gust 4 0.1 3.0 102.3 7 8
14:00 SE 2 gust 2 0.1 4.0 102.4 8 8
13:00 SE 2 gust 4 0.1 6.0 102.4 7 8
12:00 N/A N/A N/A N/A N/A N/A

Zoom-in to make a selection

Map of Pacific - Georgia Basin marine weather areas Sentry Shoal - 46131 Halibut Bank - 46146 La Perouse Bank - 46206 Discovery Island Esquimalt Harbour Kelp Reefs Malahat Race Rocks Lightstation Saturna Island Sheringham Point University of Victoria Victoria Gonzales Victoria Int'l Airport Ballenas Islands Campbell River Airport Comox Airport Entrance Island Fanny Island Nanaimo Airport Sisters Islets Estevan Point Port Alberni Tofino Airport Grief Point Howe Sound - Pam Rocks Powell River Airport Sechelt Squamish Airport Point Atkinson Sand Heads Lightstation Tsawwassen Ferry Terminal Vancouver Int'l Airport Vancouver Harbour West Vancouver
Legend:
buoy Buoy
land station Land Station

Pacific - Georgia Basin Area

Another Region

What we are doing

Date modified: